sensor_id;sensor_type;location;lat;lon;timestamp;P1;durP1;ratioP1;P2;durP2;ratioP2
20454;SDS011;10386;54.314;10.022;2023-04-30T00:02:14;12.50;;;3.70;;
20454;SDS011;10386;54.314;10.022;2023-04-30T00:04:40;7.67;;;3.33;;
20454;SDS011;10386;54.314;10.022;2023-04-30T00:07:07;10.03;;;4.23;;
20454;SDS011;10386;54.314;10.022;2023-04-30T00:09:34;13.33;;;4.13;;
20454;SDS011;10386;54.314;10.022;2023-04-30T00:12:00;10.83;;;3.90;;
20454;SDS011;10386;54.314;10.022;2023-04-30T00:14:27;9.47;;;3.67;;
20454;SDS011;10386;54.314;10.022;2023-04-30T00:16:54;9.47;;;3.57;;
20454;SDS011;10386;54.314;10.022;2023-04-30T00:19:21;12.17;;;3.97;;
20454;SDS011;10386;54.314;10.022;2023-04-30T00:21:48;9.37;;;3.60;;
20454;SDS011;10386;54.314;10.022;2023-04-30T00:24:14;7.17;;;3.63;;
20454;SDS011;10386;54.314;10.022;2023-04-30T00:26:41;13.47;;;3.83;;
20454;SDS011;10386;54.314;10.022;2023-04-30T00:29:09;8.90;;;3.67;;
20454;SDS011;10386;54.314;10.022;2023-04-30T00:31:36;15.83;;;4.10;;
20454;SDS011;10386;54.314;10.022;2023-04-30T00:34:03;8.70;;;3.40;;
20454;SDS011;10386;54.314;10.022;2023-04-30T00:36:30;9.17;;;3.53;;
20454;SDS011;10386;54.314;10.022;2023-04-30T00:38:57;7.87;;;3.83;;
20454;SDS011;10386;54.314;10.022;2023-04-30T00:41:23;9.40;;;4.30;;
20454;SDS011;10386;54.314;10.022;2023-04-30T00:43:51;8.23;;;3.80;;
20454;SDS011;10386;54.314;10.022;2023-04-30T00:46:17;8.50;;;4.33;;
20454;SDS011;10386;54.314;10.022;2023-04-30T00:48:44;15.10;;;4.30;;
20454;SDS011;10386;54.314;10.022;2023-04-30T00:51:11;10.53;;;4.33;;
20454;SDS011;10386;54.314;10.022;2023-04-30T00:53:38;11.43;;;4.00;;
20454;SDS011;10386;54.314;10.022;2023-04-30T00:56:06;8.90;;;4.30;;
20454;SDS011;10386;54.314;10.022;2023-04-30T00:58:34;8.93;;;4.23;;
20454;SDS011;10386;54.314;10.022;2023-04-30T01:01:04;13.93;;;3.77;;
20454;SDS011;10386;54.314;10.022;2023-04-30T01:03:32;13.57;;;4.43;;
20454;SDS011;10386;54.314;10.022;2023-04-30T01:06:01;9.33;;;4.00;;
20454;SDS011;10386;54.314;10.022;2023-04-30T01:08:29;15.43;;;4.43;;
20454;SDS011;10386;54.314;10.022;2023-04-30T01:13:33;20.20;;;4.70;;
20454;SDS011;10386;54.314;10.022;2023-04-30T01:16:12;8.90;;;3.93;;
20454;SDS011;10386;54.314;10.022;2023-04-30T01:18:48;16.10;;;4.20;;
20454;SDS011;10386;54.314;10.022;2023-04-30T01:21:20;11.57;;;4.07;;
20454;SDS011;10386;54.314;10.022;2023-04-30T01:26:42;9.47;;;4.40;;
20454;SDS011;10386;54.314;10.022;2023-04-30T01:29:23;10.20;;;4.67;;
20454;SDS011;10386;54.314;10.022;2023-04-30T01:31:52;11.77;;;4.90;;
20454;SDS011;10386;54.314;10.022;2023-04-30T01:34:19;17.17;;;4.60;;
20454;SDS011;10386;54.314;10.022;2023-04-30T01:37:20;17.50;;;4.10;;
20454;SDS011;10386;54.314;10.022;2023-04-30T01:39:56;9.97;;;4.20;;
20454;SDS011;10386;54.314;10.022;2023-04-30T01:42:29;10.60;;;4.17;;
20454;SDS011;10386;54.314;10.022;2023-04-30T01:51:06;15.27;;;4.57;;
20454;SDS011;10386;54.314;10.022;2023-04-30T01:53:40;9.73;;;4.03;;
20454;SDS011;10386;54.314;10.022;2023-04-30T01:56:10;6.80;;;3.83;;
20454;SDS011;10386;54.314;10.022;2023-04-30T01:58:45;10.00;;;4.10;;
20454;SDS011;10386;54.314;10.022;2023-04-30T02:01:27;11.33;;;3.93;;
20454;SDS011;10386;54.314;10.022;2023-04-30T02:03:56;10.57;;;3.93;;
20454;SDS011;10386;54.314;10.022;2023-04-30T02:06:23;12.50;;;4.30;;
20454;SDS011;10386;54.314;10.022;2023-04-30T02:08:54;14.33;;;4.50;;
20454;SDS011;10386;54.314;10.022;2023-04-30T02:11:29;13.27;;;4.13;;
20454;SDS011;10386;54.314;10.022;2023-04-30T02:13:56;10.00;;;4.33;;
20454;SDS011;10386;54.314;10.022;2023-04-30T02:16:23;12.57;;;4.17;;
20454;SDS011;10386;54.314;10.022;2023-04-30T02:18:50;12.27;;;3.70;;
20454;SDS011;10386;54.314;10.022;2023-04-30T02:21:17;14.50;;;4.73;;
20454;SDS011;10386;54.314;10.022;2023-04-30T02:23:43;12.17;;;3.67;;
20454;SDS011;10386;54.314;10.022;2023-04-30T02:26:10;13.67;;;4.30;;
20454;SDS011;10386;54.314;10.022;2023-04-30T02:28:37;11.50;;;4.47;;
20454;SDS011;10386;54.314;10.022;2023-04-30T02:31:04;14.43;;;5.30;;
20454;SDS011;10386;54.314;10.022;2023-04-30T02:33:31;15.13;;;4.17;;
20454;SDS011;10386;54.314;10.022;2023-04-30T02:35:59;7.67;;;4.13;;
20454;SDS011;10386;54.314;10.022;2023-04-30T02:38:26;10.57;;;3.90;;
20454;SDS011;10386;54.314;10.022;2023-04-30T02:40:52;11.60;;;4.00;;
20454;SDS011;10386;54.314;10.022;2023-04-30T02:43:19;10.70;;;4.37;;
20454;SDS011;10386;54.314;10.022;2023-04-30T02:45:46;9.93;;;3.90;;
20454;SDS011;10386;54.314;10.022;2023-04-30T02:48:13;15.03;;;4.00;;
20454;SDS011;10386;54.314;10.022;2023-04-30T02:50:40;10.67;;;4.57;;
20454;SDS011;10386;54.314;10.022;2023-04-30T02:53:07;11.57;;;4.20;;
20454;SDS011;10386;54.314;10.022;2023-04-30T02:55:34;9.80;;;4.30;;
20454;SDS011;10386;54.314;10.022;2023-04-30T02:58:00;13.17;;;4.87;;
20454;SDS011;10386;54.314;10.022;2023-04-30T03:00:27;13.37;;;4.17;;
20454;SDS011;10386;54.314;10.022;2023-04-30T03:02:54;27.97;;;4.97;;
20454;SDS011;10386;54.314;10.022;2023-04-30T03:05:21;15.80;;;4.50;;
20454;SDS011;10386;54.314;10.022;2023-04-30T03:07:48;17.50;;;4.40;;
20454;SDS011;10386;54.314;10.022;2023-04-30T03:10:15;15.00;;;4.70;;
20454;SDS011;10386;54.314;10.022;2023-04-30T03:12:41;15.67;;;4.70;;
20454;SDS011;10386;54.314;10.022;2023-04-30T03:15:08;16.77;;;4.20;;
20454;SDS011;10386;54.314;10.022;2023-04-30T03:17:35;11.50;;;4.70;;
20454;SDS011;10386;54.314;10.022;2023-04-30T03:20:02;14.30;;;4.50;;
20454;SDS011;10386;54.314;10.022;2023-04-30T03:22:29;7.83;;;3.67;;
20454;SDS011;10386;54.314;10.022;2023-04-30T03:24:56;17.33;;;4.87;;
20454;SDS011;10386;54.314;10.022;2023-04-30T03:27:23;13.20;;;4.37;;
20454;SDS011;10386;54.314;10.022;2023-04-30T03:29:49;13.43;;;4.90;;
20454;SDS011;10386;54.314;10.022;2023-04-30T03:32:16;12.90;;;4.40;;
20454;SDS011;10386;54.314;10.022;2023-04-30T03:34:42;13.60;;;4.70;;
20454;SDS011;10386;54.314;10.022;2023-04-30T03:37:09;13.30;;;4.80;;
20454;SDS011;10386;54.314;10.022;2023-04-30T03:39:36;12.67;;;4.93;;
20454;SDS011;10386;54.314;10.022;2023-04-30T03:42:03;18.30;;;5.53;;
20454;SDS011;10386;54.314;10.022;2023-04-30T03:44:29;11.93;;;4.40;;
20454;SDS011;10386;54.314;10.022;2023-04-30T03:46:56;10.90;;;4.33;;
20454;SDS011;10386;54.314;10.022;2023-04-30T03:49:23;14.73;;;4.80;;
20454;SDS011;10386;54.314;10.022;2023-04-30T03:51:49;11.90;;;4.27;;
20454;SDS011;10386;54.314;10.022;2023-04-30T03:54:16;18.57;;;4.83;;
20454;SDS011;10386;54.314;10.022;2023-04-30T03:56:43;14.13;;;4.47;;
20454;SDS011;10386;54.314;10.022;2023-04-30T03:59:10;8.77;;;4.27;;
20454;SDS011;10386;54.314;10.022;2023-04-30T04:01:36;14.83;;;4.67;;
20454;SDS011;10386;54.314;10.022;2023-04-30T04:04:03;15.13;;;4.50;;
20454;SDS011;10386;54.314;10.022;2023-04-30T04:06:30;12.47;;;4.40;;
20454;SDS011;10386;54.314;10.022;2023-04-30T04:08:57;12.07;;;4.10;;
20454;SDS011;10386;54.314;10.022;2023-04-30T04:11:24;9.73;;;4.30;;
20454;SDS011;10386;54.314;10.022;2023-04-30T04:13:51;10.90;;;4.13;;
20454;SDS011;10386;54.314;10.022;2023-04-30T04:16:17;12.13;;;4.67;;
20454;SDS011;10386;54.314;10.022;2023-04-30T04:18:44;15.50;;;5.43;;
20454;SDS011;10386;54.314;10.022;2023-04-30T04:21:11;12.97;;;4.40;;
20454;SDS011;10386;54.314;10.022;2023-04-30T04:23:38;11.53;;;4.67;;
20454;SDS011;10386;54.314;10.022;2023-04-30T04:26:05;13.93;;;4.50;;
20454;SDS011;10386;54.314;10.022;2023-04-30T04:28:32;11.93;;;4.60;;
20454;SDS011;10386;54.314;10.022;2023-04-30T04:30:59;14.23;;;4.77;;
20454;SDS011;10386;54.314;10.022;2023-04-30T04:33:25;10.47;;;4.60;;
20454;SDS011;10386;54.314;10.022;2023-04-30T04:35:53;15.03;;;4.23;;
20454;SDS011;10386;54.314;10.022;2023-04-30T04:38:20;9.50;;;4.60;;
20454;SDS011;10386;54.314;10.022;2023-04-30T04:40:51;10.80;;;4.60;;
20454;SDS011;10386;54.314;10.022;2023-04-30T04:43:19;9.17;;;4.37;;
20454;SDS011;10386;54.314;10.022;2023-04-30T04:45:46;12.27;;;4.37;;
20454;SDS011;10386;54.314;10.022;2023-04-30T04:48:13;13.50;;;4.47;;
20454;SDS011;10386;54.314;10.022;2023-04-30T04:50:40;20.23;;;5.77;;
20454;SDS011;10386;54.314;10.022;2023-04-30T04:53:07;8.97;;;3.90;;
20454;SDS011;10386;54.314;10.022;2023-04-30T04:55:34;13.23;;;4.73;;
20454;SDS011;10386;54.314;10.022;2023-04-30T04:58:01;11.90;;;4.23;;
20454;SDS011;10386;54.314;10.022;2023-04-30T05:00:28;12.77;;;4.07;;
20454;SDS011;10386;54.314;10.022;2023-04-30T05:02:55;14.20;;;4.27;;
20454;SDS011;10386;54.314;10.022;2023-04-30T05:05:22;13.40;;;3.90;;
20454;SDS011;10386;54.314;10.022;2023-04-30T05:07:49;9.20;;;3.70;;
20454;SDS011;10386;54.314;10.022;2023-04-30T05:10:20;8.30;;;3.80;;
20454;SDS011;10386;54.314;10.022;2023-04-30T05:12:47;7.30;;;3.73;;
20454;SDS011;10386;54.314;10.022;2023-04-30T05:15:13;13.60;;;4.03;;
20454;SDS011;10386;54.314;10.022;2023-04-30T05:17:40;11.03;;;3.47;;
20454;SDS011;10386;54.314;10.022;2023-04-30T05:20:07;9.77;;;3.23;;
20454;SDS011;10386;54.314;10.022;2023-04-30T05:22:34;8.03;;;3.47;;
20454;SDS011;10386;54.314;10.022;2023-04-30T05:25:01;13.33;;;3.97;;
20454;SDS011;10386;54.314;10.022;2023-04-30T05:27:28;12.07;;;3.97;;
20454;SDS011;10386;54.314;10.022;2023-04-30T05:29:55;12.53;;;3.70;;
20454;SDS011;10386;54.314;10.022;2023-04-30T05:32:22;11.33;;;4.17;;
20454;SDS011;10386;54.314;10.022;2023-04-30T05:34:49;10.00;;;3.57;;
20454;SDS011;10386;54.314;10.022;2023-04-30T05:37:15;12.63;;;3.50;;
20454;SDS011;10386;54.314;10.022;2023-04-30T05:39:45;10.37;;;3.80;;
20454;SDS011;10386;54.314;10.022;2023-04-30T05:42:12;10.60;;;3.50;;
20454;SDS011;10386;54.314;10.022;2023-04-30T05:44:39;9.50;;;3.30;;
20454;SDS011;10386;54.314;10.022;2023-04-30T05:47:06;12.87;;;3.57;;
20454;SDS011;10386;54.314;10.022;2023-04-30T05:49:33;8.40;;;3.00;;
20454;SDS011;10386;54.314;10.022;2023-04-30T05:52:01;7.30;;;3.40;;
20454;SDS011;10386;54.314;10.022;2023-04-30T05:54:29;11.53;;;4.30;;
20454;SDS011;10386;54.314;10.022;2023-04-30T05:56:56;9.57;;;3.00;;
20454;SDS011;10386;54.314;10.022;2023-04-30T05:59:23;11.40;;;3.33;;
20454;SDS011;10386;54.314;10.022;2023-04-30T06:01:50;10.73;;;3.43;;
20454;SDS011;10386;54.314;10.022;2023-04-30T06:04:17;10.07;;;3.30;;
20454;SDS011;10386;54.314;10.022;2023-04-30T06:06:44;8.83;;;3.30;;
20454;SDS011;10386;54.314;10.022;2023-04-30T06:09:11;10.00;;;3.37;;
20454;SDS011;10386;54.314;10.022;2023-04-30T06:11:37;14.30;;;3.50;;
20454;SDS011;10386;54.314;10.022;2023-04-30T06:14:31;6.73;;;3.23;;
20454;SDS011;10386;54.314;10.022;2023-04-30T06:16:58;10.03;;;3.10;;
20454;SDS011;10386;54.314;10.022;2023-04-30T06:19:25;7.43;;;3.20;;
20454;SDS011;10386;54.314;10.022;2023-04-30T06:21:52;9.80;;;3.03;;
20454;SDS011;10386;54.314;10.022;2023-04-30T06:24:21;7.37;;;3.20;;
20454;SDS011;10386;54.314;10.022;2023-04-30T06:26:47;7.80;;;2.90;;
20454;SDS011;10386;54.314;10.022;2023-04-30T06:29:14;16.10;;;2.90;;
20454;SDS011;10386;54.314;10.022;2023-04-30T06:31:41;6.93;;;2.60;;
20454;SDS011;10386;54.314;10.022;2023-04-30T06:34:08;6.07;;;2.80;;
20454;SDS011;10386;54.314;10.022;2023-04-30T06:36:38;5.80;;;2.60;;
20454;SDS011;10386;54.314;10.022;2023-04-30T06:39:08;7.23;;;2.80;;
20454;SDS011;10386;54.314;10.022;2023-04-30T06:41:35;8.10;;;3.00;;
20454;SDS011;10386;54.314;10.022;2023-04-30T06:44:01;7.00;;;2.43;;
20454;SDS011;10386;54.314;10.022;2023-04-30T06:46:28;6.03;;;2.60;;
20454;SDS011;10386;54.314;10.022;2023-04-30T06:48:55;11.03;;;2.90;;
20454;SDS011;10386;54.314;10.022;2023-04-30T06:51:22;5.97;;;2.20;;
20454;SDS011;10386;54.314;10.022;2023-04-30T06:53:51;9.23;;;2.70;;
20454;SDS011;10386;54.314;10.022;2023-04-30T06:56:19;5.90;;;2.67;;
20454;SDS011;10386;54.314;10.022;2023-04-30T06:58:47;4.77;;;2.43;;
20454;SDS011;10386;54.314;10.022;2023-04-30T07:01:15;6.43;;;2.77;;
20454;SDS011;10386;54.314;10.022;2023-04-30T07:03:42;7.60;;;3.03;;
20454;SDS011;10386;54.314;10.022;2023-04-30T07:06:09;8.03;;;2.40;;
20454;SDS011;10386;54.314;10.022;2023-04-30T07:08:36;8.10;;;2.67;;
20454;SDS011;10386;54.314;10.022;2023-04-30T07:11:06;6.23;;;2.60;;
20454;SDS011;10386;54.314;10.022;2023-04-30T07:13:33;7.27;;;2.30;;
20454;SDS011;10386;54.314;10.022;2023-04-30T07:16:00;8.00;;;2.73;;
20454;SDS011;10386;54.314;10.022;2023-04-30T07:18:27;6.00;;;2.23;;
20454;SDS011;10386;54.314;10.022;2023-04-30T07:20:54;8.77;;;2.33;;
20454;SDS011;10386;54.314;10.022;2023-04-30T07:23:21;7.17;;;2.60;;
20454;SDS011;10386;54.314;10.022;2023-04-30T07:26:02;10.17;;;3.37;;
20454;SDS011;10386;54.314;10.022;2023-04-30T07:28:30;7.00;;;2.60;;
20454;SDS011;10386;54.314;10.022;2023-04-30T07:30:57;8.90;;;3.13;;
20454;SDS011;10386;54.314;10.022;2023-04-30T07:33:24;4.53;;;2.50;;
20454;SDS011;10386;54.314;10.022;2023-04-30T07:35:53;8.07;;;2.67;;
20454;SDS011;10386;54.314;10.022;2023-04-30T07:38:21;6.73;;;2.70;;
20454;SDS011;10386;54.314;10.022;2023-04-30T07:40:49;6.33;;;2.70;;
20454;SDS011;10386;54.314;10.022;2023-04-30T07:43:16;9.13;;;2.80;;
20454;SDS011;10386;54.314;10.022;2023-04-30T07:45:43;6.97;;;2.37;;
20454;SDS011;10386;54.314;10.022;2023-04-30T07:48:12;4.93;;;2.47;;
20454;SDS011;10386;54.314;10.022;2023-04-30T07:50:39;7.63;;;2.33;;
20454;SDS011;10386;54.314;10.022;2023-04-30T07:53:06;3.93;;;2.40;;
20454;SDS011;10386;54.314;10.022;2023-04-30T07:55:34;12.13;;;2.60;;
20454;SDS011;10386;54.314;10.022;2023-04-30T07:58:03;5.67;;;2.37;;
20454;SDS011;10386;54.314;10.022;2023-04-30T08:00:31;8.47;;;2.67;;
20454;SDS011;10386;54.314;10.022;2023-04-30T08:03:00;6.53;;;2.80;;
20454;SDS011;10386;54.314;10.022;2023-04-30T08:05:28;7.63;;;3.00;;
20454;SDS011;10386;54.314;10.022;2023-04-30T08:07:55;9.93;;;2.57;;
20454;SDS011;10386;54.314;10.022;2023-04-30T08:10:22;3.90;;;2.60;;
20454;SDS011;10386;54.314;10.022;2023-04-30T08:12:50;7.57;;;2.50;;
20454;SDS011;10386;54.314;10.022;2023-04-30T08:15:18;6.27;;;2.33;;
20454;SDS011;10386;54.314;10.022;2023-04-30T08:17:49;3.90;;;2.27;;
20454;SDS011;10386;54.314;10.022;2023-04-30T08:20:17;9.30;;;2.97;;
20454;SDS011;10386;54.314;10.022;2023-04-30T08:22:45;5.43;;;2.70;;
20454;SDS011;10386;54.314;10.022;2023-04-30T08:25:14;5.47;;;2.60;;
20454;SDS011;10386;54.314;10.022;2023-04-30T08:27:41;7.30;;;2.50;;
20454;SDS011;10386;54.314;10.022;2023-04-30T08:30:08;8.83;;;2.77;;
20454;SDS011;10386;54.314;10.022;2023-04-30T08:32:35;9.30;;;2.67;;
20454;SDS011;10386;54.314;10.022;2023-04-30T08:35:06;8.23;;;2.80;;
20454;SDS011;10386;54.314;10.022;2023-04-30T08:37:33;6.17;;;2.80;;
20454;SDS011;10386;54.314;10.022;2023-04-30T08:40:01;4.93;;;2.20;;
20454;SDS011;10386;54.314;10.022;2023-04-30T08:42:37;10.43;;;2.77;;
20454;SDS011;10386;54.314;10.022;2023-04-30T08:45:13;10.50;;;2.60;;
20454;SDS011;10386;54.314;10.022;2023-04-30T08:47:41;7.67;;;2.30;;
20454;SDS011;10386;54.314;10.022;2023-04-30T08:50:13;6.73;;;2.80;;
20454;SDS011;10386;54.314;10.022;2023-04-30T08:52:41;6.67;;;2.50;;
20454;SDS011;10386;54.314;10.022;2023-04-30T08:55:09;7.40;;;2.63;;
20454;SDS011;10386;54.314;10.022;2023-04-30T08:57:37;5.30;;;2.57;;
20454;SDS011;10386;54.314;10.022;2023-04-30T09:00:05;9.07;;;2.53;;
20454;SDS011;10386;54.314;10.022;2023-04-30T09:02:40;5.83;;;2.70;;
20454;SDS011;10386;54.314;10.022;2023-04-30T09:05:10;6.63;;;2.87;;
20454;SDS011;10386;54.314;10.022;2023-04-30T09:07:42;5.23;;;2.63;;
20454;SDS011;10386;54.314;10.022;2023-04-30T09:10:32;11.50;;;2.87;;
20454;SDS011;10386;54.314;10.022;2023-04-30T09:13:41;5.67;;;2.23;;
20454;SDS011;10386;54.314;10.022;2023-04-30T09:16:25;6.57;;;2.30;;
20454;SDS011;10386;54.314;10.022;2023-04-30T09:18:56;9.97;;;2.80;;
20454;SDS011;10386;54.314;10.022;2023-04-30T09:21:33;7.07;;;2.73;;
20454;SDS011;10386;54.314;10.022;2023-04-30T09:24:03;10.27;;;3.17;;
20454;SDS011;10386;54.314;10.022;2023-04-30T09:26:34;6.07;;;2.47;;
20454;SDS011;10386;54.314;10.022;2023-04-30T09:29:13;6.30;;;2.40;;
20454;SDS011;10386;54.314;10.022;2023-04-30T09:31:51;11.03;;;2.90;;
20454;SDS011;10386;54.314;10.022;2023-04-30T09:34:47;3.60;;;2.10;;
20454;SDS011;10386;54.314;10.022;2023-04-30T09:37:35;5.40;;;2.33;;
20454;SDS011;10386;54.314;10.022;2023-04-30T09:40:11;7.23;;;3.00;;
20454;SDS011;10386;54.314;10.022;2023-04-30T09:42:38;4.03;;;2.73;;
20454;SDS011;10386;54.314;10.022;2023-04-30T09:45:05;4.63;;;2.13;;
20454;SDS011;10386;54.314;10.022;2023-04-30T09:47:33;5.87;;;2.57;;
20454;SDS011;10386;54.314;10.022;2023-04-30T09:50:01;3.33;;;2.17;;
20454;SDS011;10386;54.314;10.022;2023-04-30T09:52:28;6.30;;;2.60;;
20454;SDS011;10386;54.314;10.022;2023-04-30T09:54:54;8.43;;;3.00;;
20454;SDS011;10386;54.314;10.022;2023-04-30T09:57:22;9.53;;;2.87;;
20454;SDS011;10386;54.314;10.022;2023-04-30T09:59:50;9.17;;;2.93;;
20454;SDS011;10386;54.314;10.022;2023-04-30T10:02:18;5.30;;;2.90;;
20454;SDS011;10386;54.314;10.022;2023-04-30T10:04:48;4.17;;;2.40;;
20454;SDS011;10386;54.314;10.022;2023-04-30T10:07:19;7.10;;;2.50;;
20454;SDS011;10386;54.314;10.022;2023-04-30T10:12:50;5.13;;;2.40;;
20454;SDS011;10386;54.314;10.022;2023-04-30T10:15:27;6.50;;;2.47;;
20454;SDS011;10386;54.314;10.022;2023-04-30T10:18:05;6.90;;;3.00;;
20454;SDS011;10386;54.314;10.022;2023-04-30T10:20:36;7.20;;;2.67;;
20454;SDS011;10386;54.314;10.022;2023-04-30T10:23:04;8.13;;;2.90;;
20454;SDS011;10386;54.314;10.022;2023-04-30T10:25:32;10.60;;;3.10;;
20454;SDS011;10386;54.314;10.022;2023-04-30T10:27:59;7.27;;;3.13;;
20454;SDS011;10386;54.314;10.022;2023-04-30T10:30:29;7.67;;;2.77;;
20454;SDS011;10386;54.314;10.022;2023-04-30T10:35:58;8.40;;;3.00;;
20454;SDS011;10386;54.314;10.022;2023-04-30T10:38:28;4.67;;;2.90;;
20454;SDS011;10386;54.314;10.022;2023-04-30T10:40:56;7.33;;;2.80;;
20454;SDS011;10386;54.314;10.022;2023-04-30T10:43:24;7.00;;;2.90;;
20454;SDS011;10386;54.314;10.022;2023-04-30T10:45:51;4.60;;;2.73;;
20454;SDS011;10386;54.314;10.022;2023-04-30T10:48:20;5.40;;;2.80;;
20454;SDS011;10386;54.314;10.022;2023-04-30T10:50:52;7.83;;;3.00;;
20454;SDS011;10386;54.314;10.022;2023-04-30T10:53:22;3.03;;;2.37;;
20454;SDS011;10386;54.314;10.022;2023-04-30T10:55:58;6.40;;;2.80;;
20454;SDS011;10386;54.314;10.022;2023-04-30T10:58:33;8.37;;;2.70;;
20454;SDS011;10386;54.314;10.022;2023-04-30T11:01:10;5.43;;;2.40;;
20454;SDS011;10386;54.314;10.022;2023-04-30T11:03:39;5.00;;;2.40;;
20454;SDS011;10386;54.314;10.022;2023-04-30T11:06:12;5.57;;;2.37;;
20454;SDS011;10386;54.314;10.022;2023-04-30T11:08:43;5.13;;;2.80;;
20454;SDS011;10386;54.314;10.022;2023-04-30T11:11:12;6.57;;;3.07;;
20454;SDS011;10386;54.314;10.022;2023-04-30T11:13:46;5.57;;;2.93;;
20454;SDS011;10386;54.314;10.022;2023-04-30T11:16:29;7.00;;;2.80;;
20454;SDS011;10386;54.314;10.022;2023-04-30T11:19:04;9.00;;;2.90;;
20454;SDS011;10386;54.314;10.022;2023-04-30T11:27:20;4.93;;;2.37;;
20454;SDS011;10386;54.314;10.022;2023-04-30T11:29:48;7.57;;;2.67;;
20454;SDS011;10386;54.314;10.022;2023-04-30T11:32:20;7.27;;;2.60;;
20454;SDS011;10386;54.314;10.022;2023-04-30T11:34:49;6.53;;;2.70;;
20454;SDS011;10386;54.314;10.022;2023-04-30T11:37:20;5.97;;;2.60;;
20454;SDS011;10386;54.314;10.022;2023-04-30T11:39:49;5.17;;;2.60;;
20454;SDS011;10386;54.314;10.022;2023-04-30T11:42:17;4.63;;;2.60;;
20454;SDS011;10386;54.314;10.022;2023-04-30T11:44:44;5.87;;;3.10;;
20454;SDS011;10386;54.314;10.022;2023-04-30T11:47:12;7.20;;;2.70;;
20454;SDS011;10386;54.314;10.022;2023-04-30T11:49:39;7.67;;;2.87;;
20454;SDS011;10386;54.314;10.022;2023-04-30T11:52:07;9.37;;;2.97;;
20454;SDS011;10386;54.314;10.022;2023-04-30T11:54:35;7.07;;;3.10;;
20454;SDS011;10386;54.314;10.022;2023-04-30T11:57:03;8.07;;;2.80;;
20454;SDS011;10386;54.314;10.022;2023-04-30T11:59:35;4.90;;;2.50;;
20454;SDS011;10386;54.314;10.022;2023-04-30T12:02:06;4.63;;;2.50;;
20454;SDS011;10386;54.314;10.022;2023-04-30T12:04:35;4.10;;;2.60;;
20454;SDS011;10386;54.314;10.022;2023-04-30T12:07:02;6.67;;;2.53;;
20454;SDS011;10386;54.314;10.022;2023-04-30T12:09:28;3.30;;;2.53;;
20454;SDS011;10386;54.314;10.022;2023-04-30T12:11:55;4.43;;;2.73;;
20454;SDS011;10386;54.314;10.022;2023-04-30T12:14:23;6.40;;;2.30;;
20454;SDS011;10386;54.314;10.022;2023-04-30T12:16:50;7.80;;;2.80;;
20454;SDS011;10386;54.314;10.022;2023-04-30T12:19:18;9.37;;;2.70;;
20454;SDS011;10386;54.314;10.022;2023-04-30T12:21:47;7.13;;;2.50;;
20454;SDS011;10386;54.314;10.022;2023-04-30T12:24:15;6.83;;;2.37;;
20454;SDS011;10386;54.314;10.022;2023-04-30T12:26:43;6.33;;;2.57;;
20454;SDS011;10386;54.314;10.022;2023-04-30T12:29:15;5.47;;;2.60;;
20454;SDS011;10386;54.314;10.022;2023-04-30T12:31:42;7.00;;;2.83;;
20454;SDS011;10386;54.314;10.022;2023-04-30T12:34:13;5.37;;;2.80;;
20454;SDS011;10386;54.314;10.022;2023-04-30T12:36:40;6.63;;;2.93;;
20454;SDS011;10386;54.314;10.022;2023-04-30T12:39:11;5.60;;;2.60;;
20454;SDS011;10386;54.314;10.022;2023-04-30T12:41:43;5.07;;;2.90;;
20454;SDS011;10386;54.314;10.022;2023-04-30T12:44:21;6.03;;;2.77;;
20454;SDS011;10386;54.314;10.022;2023-04-30T12:46:51;7.47;;;2.57;;
20454;SDS011;10386;54.314;10.022;2023-04-30T12:49:29;7.97;;;2.60;;
20454;SDS011;10386;54.314;10.022;2023-04-30T12:52:02;5.33;;;2.70;;
20454;SDS011;10386;54.314;10.022;2023-04-30T12:54:30;5.30;;;2.50;;
20454;SDS011;10386;54.314;10.022;2023-04-30T12:56:58;3.03;;;2.30;;
20454;SDS011;10386;54.314;10.022;2023-04-30T12:59:31;5.70;;;2.90;;
20454;SDS011;10386;54.314;10.022;2023-04-30T13:04:36;6.00;;;2.50;;
20454;SDS011;10386;54.314;10.022;2023-04-30T13:07:03;10.13;;;2.40;;
20454;SDS011;10386;54.314;10.022;2023-04-30T13:09:33;6.83;;;2.50;;
20454;SDS011;10386;54.314;10.022;2023-04-30T13:12:02;7.30;;;2.70;;
20454;SDS011;10386;54.314;10.022;2023-04-30T13:14:30;4.40;;;2.80;;
20454;SDS011;10386;54.314;10.022;2023-04-30T13:16:57;4.53;;;3.00;;
20454;SDS011;10386;54.314;10.022;2023-04-30T13:19:24;8.33;;;2.73;;
20454;SDS011;10386;54.314;10.022;2023-04-30T13:21:52;7.27;;;2.87;;
20454;SDS011;10386;54.314;10.022;2023-04-30T13:24:18;10.77;;;3.10;;
20454;SDS011;10386;54.314;10.022;2023-04-30T13:26:45;7.20;;;2.70;;
20454;SDS011;10386;54.314;10.022;2023-04-30T13:29:12;4.53;;;2.70;;
20454;SDS011;10386;54.314;10.022;2023-04-30T13:31:39;5.10;;;2.70;;
20454;SDS011;10386;54.314;10.022;2023-04-30T13:34:08;4.90;;;2.70;;
20454;SDS011;10386;54.314;10.022;2023-04-30T13:36:35;5.93;;;2.70;;
20454;SDS011;10386;54.314;10.022;2023-04-30T13:39:02;5.10;;;2.43;;
20454;SDS011;10386;54.314;10.022;2023-04-30T13:41:30;6.70;;;2.83;;
20454;SDS011;10386;54.314;10.022;2023-04-30T13:43:56;5.40;;;2.40;;
20454;SDS011;10386;54.314;10.022;2023-04-30T13:46:25;4.63;;;2.60;;
20454;SDS011;10386;54.314;10.022;2023-04-30T13:48:52;4.47;;;2.50;;
20454;SDS011;10386;54.314;10.022;2023-04-30T13:51:18;4.83;;;2.60;;
20454;SDS011;10386;54.314;10.022;2023-04-30T13:53:45;7.60;;;2.87;;
20454;SDS011;10386;54.314;10.022;2023-04-30T13:56:12;4.10;;;2.60;;
20454;SDS011;10386;54.314;10.022;2023-04-30T13:58:40;3.50;;;2.40;;
20454;SDS011;10386;54.314;10.022;2023-04-30T14:01:07;5.93;;;3.10;;
20454;SDS011;10386;54.314;10.022;2023-04-30T14:03:35;5.40;;;2.77;;
20454;SDS011;10386;54.314;10.022;2023-04-30T14:06:03;5.67;;;2.77;;
20454;SDS011;10386;54.314;10.022;2023-04-30T14:08:31;4.97;;;2.80;;
20454;SDS011;10386;54.314;10.022;2023-04-30T14:10:59;5.70;;;2.83;;
20454;SDS011;10386;54.314;10.022;2023-04-30T14:13:26;6.50;;;3.33;;
20454;SDS011;10386;54.314;10.022;2023-04-30T14:15:52;5.10;;;2.43;;
20454;SDS011;10386;54.314;10.022;2023-04-30T14:18:21;3.93;;;2.50;;
20454;SDS011;10386;54.314;10.022;2023-04-30T14:20:48;7.10;;;2.60;;
20454;SDS011;10386;54.314;10.022;2023-04-30T14:23:15;5.57;;;2.73;;
20454;SDS011;10386;54.314;10.022;2023-04-30T14:25:43;3.70;;;2.57;;
20454;SDS011;10386;54.314;10.022;2023-04-30T14:28:09;4.47;;;2.70;;
20454;SDS011;10386;54.314;10.022;2023-04-30T14:30:37;9.70;;;2.87;;
20454;SDS011;10386;54.314;10.022;2023-04-30T14:33:03;5.27;;;3.03;;
20454;SDS011;10386;54.314;10.022;2023-04-30T14:35:31;8.07;;;2.47;;
20454;SDS011;10386;54.314;10.022;2023-04-30T14:37:58;7.20;;;3.13;;
20454;SDS011;10386;54.314;10.022;2023-04-30T14:40:25;8.57;;;2.77;;
20454;SDS011;10386;54.314;10.022;2023-04-30T14:42:51;7.30;;;3.00;;
20454;SDS011;10386;54.314;10.022;2023-04-30T14:45:18;3.37;;;2.47;;
20454;SDS011;10386;54.314;10.022;2023-04-30T14:47:45;4.80;;;2.57;;
20454;SDS011;10386;54.314;10.022;2023-04-30T14:50:12;4.57;;;2.70;;
20454;SDS011;10386;54.314;10.022;2023-04-30T14:52:39;3.30;;;2.40;;
20454;SDS011;10386;54.314;10.022;2023-04-30T14:55:07;4.63;;;2.73;;
20454;SDS011;10386;54.314;10.022;2023-04-30T14:57:34;5.67;;;2.33;;
20454;SDS011;10386;54.314;10.022;2023-04-30T15:00:01;4.27;;;2.57;;
20454;SDS011;10386;54.314;10.022;2023-04-30T15:02:29;5.37;;;2.67;;
20454;SDS011;10386;54.314;10.022;2023-04-30T15:04:56;6.63;;;2.30;;
20454;SDS011;10386;54.314;10.022;2023-04-30T15:07:23;4.90;;;2.50;;